createdAt,value
2022-09-05T00:01:48.753Z,98.40
2022-09-05T00:04:27.846Z,97.90
2022-09-05T00:07:03.826Z,99.90
2022-09-05T00:10:02.127Z,99.90
2022-09-05T00:12:35.444Z,99.90
2022-09-05T00:15:31.153Z,99.90
2022-09-05T00:23:00.510Z,99.90
2022-09-05T00:24:37.160Z,99.90
2022-09-05T00:25:06.872Z,99.90
2022-09-05T00:27:36.158Z,99.90
2022-09-05T00:31:07.465Z,99.90
2022-09-05T00:33:17.560Z,99.90
2022-09-05T00:36:03.114Z,99.90
2022-09-05T00:38:36.620Z,99.90
2022-09-05T00:41:09.331Z,99.90
2022-09-05T00:43:42.058Z,99.90
2022-09-05T00:46:15.663Z,99.90
2022-09-05T00:48:52.237Z,99.90
2022-09-05T00:51:35.494Z,99.90
2022-09-05T00:54:50.460Z,99.90
2022-09-05T00:57:33.179Z,99.90
2022-09-05T01:00:19.868Z,99.90
2022-09-05T01:03:21.828Z,99.90
2022-09-05T01:06:05.176Z,99.90
2022-09-05T01:08:53.460Z,99.90
2022-09-05T01:11:39.406Z,99.90
2022-09-05T01:14:21.766Z,99.90
2022-09-05T01:17:09.921Z,99.90
2022-09-05T01:19:51.835Z,99.90
2022-09-05T01:22:36.154Z,99.90
2022-09-05T01:25:20.291Z,99.90
2022-09-05T01:29:14.177Z,99.90
2022-09-05T01:30:51.760Z,99.90
2022-09-05T01:33:32.135Z,99.90
2022-09-05T01:36:33.222Z,99.90
2022-09-05T01:40:12.171Z,99.90
2022-09-05T01:42:00.382Z,99.90
2022-09-05T01:44:42.797Z,99.90
2022-09-05T01:47:40.229Z,99.90
2022-09-05T01:50:24.905Z,99.90
2022-09-05T01:53:25.386Z,99.90
2022-09-05T01:56:26.114Z,99.90
2022-09-05T01:59:07.388Z,99.90
2022-09-05T02:01:49.800Z,99.90
2022-09-05T02:04:48.598Z,99.90
2022-09-05T02:07:31.829Z,99.90
2022-09-05T02:10:31.756Z,99.90
2022-09-05T02:13:12.938Z,99.90
2022-09-05T02:15:59.816Z,99.90
2022-09-05T02:18:44.189Z,99.90
2022-09-05T02:21:23.236Z,99.90
2022-09-05T02:24:02.625Z,99.90
2022-09-05T02:26:35.656Z,99.90
2022-09-05T02:29:12.388Z,99.90
2022-09-05T02:32:02.624Z,99.90
2022-09-05T02:34:41.299Z,99.90
2022-09-05T02:37:15.771Z,99.90
2022-09-05T02:45:00.100Z,99.90
2022-09-05T02:45:14.649Z,99.90
2022-09-05T02:46:00.019Z,99.90
2022-09-05T02:48:39.078Z,99.90
2022-09-05T02:57:27.592Z,99.90
2022-09-05T02:57:34.880Z,99.90
2022-09-05T02:57:45.961Z,99.90
2022-09-05T03:00:09.069Z,99.90
2022-09-05T03:02:44.117Z,99.90
2022-09-05T03:05:19.221Z,99.90
2022-09-05T03:08:20.467Z,99.90
2022-09-05T03:11:20.359Z,99.90
2022-09-05T03:14:26.442Z,99.90
2022-09-05T03:17:24.860Z,99.90
2022-09-05T03:20:29.565Z,99.90
2022-09-05T03:23:23.231Z,99.90
2022-09-05T03:26:33.504Z,99.90
2022-09-05T03:29:39.228Z,99.90
2022-09-05T03:32:29.912Z,99.90
2022-09-05T03:35:35.713Z,99.90
2022-09-05T03:38:30.307Z,99.90
2022-09-05T03:41:19.040Z,99.90
2022-09-05T03:44:05.204Z,99.90
2022-09-05T03:46:59.405Z,99.90
2022-09-05T03:54:33.767Z,99.90
2022-09-05T03:57:16.513Z,99.90
2022-09-05T03:57:17.190Z,99.90
2022-09-05T03:59:17.175Z,99.90
2022-09-05T04:02:43.679Z,99.90
2022-09-05T04:08:14.028Z,99.90
2022-09-05T04:08:23.638Z,99.90
2022-09-05T04:10:36.550Z,99.90
2022-09-05T04:13:09.443Z,99.90
2022-09-05T04:15:43.360Z,99.90
2022-09-05T04:18:25.686Z,99.90
2022-09-05T04:21:06.019Z,99.90
2022-09-05T04:23:42.380Z,99.90
2022-09-05T04:26:23.085Z,99.90
2022-09-05T04:29:03.295Z,99.90
2022-09-05T04:31:44.306Z,99.90
2022-09-05T04:34:32.063Z,99.90
2022-09-05T04:37:03.052Z,99.90
2022-09-05T04:39:33.116Z,99.90
2022-09-05T04:42:15.455Z,99.90
2022-09-05T04:44:49.088Z,99.90
2022-09-05T04:47:23.353Z,99.90
2022-09-05T04:49:58.167Z,99.90
2022-09-05T04:52:49.184Z,99.90
2022-09-05T04:55:20.243Z,99.90
2022-09-05T04:57:54.503Z,99.90
2022-09-05T05:05:58.461Z,99.90
2022-09-05T05:06:16.671Z,99.90
2022-09-05T05:06:43.813Z,99.90
2022-09-05T05:09:03.592Z,99.90
2022-09-05T05:17:50.874Z,99.90
2022-09-05T05:18:08.470Z,99.90
2022-09-05T05:18:13.564Z,99.90
2022-09-05T05:20:41.238Z,99.90
2022-09-05T05:23:15.297Z,99.90
2022-09-05T05:25:49.312Z,99.90
2022-09-05T05:28:26.424Z,99.90
2022-09-05T05:31:01.177Z,99.90
2022-09-05T05:33:34.649Z,99.90
2022-09-05T05:36:10.079Z,99.90
2022-09-05T05:38:46.962Z,99.90
2022-09-05T05:41:21.507Z,99.90
2022-09-05T05:43:51.137Z,99.90
2022-09-05T05:46:32.145Z,99.90
2022-09-05T05:49:24.435Z,99.90
2022-09-05T05:52:13.732Z,99.90
2022-09-05T05:54:50.469Z,99.90
2022-09-05T05:57:48.660Z,99.90
2022-09-05T06:00:27.317Z,99.90
2022-09-05T06:03:24.953Z,99.90
2022-09-05T06:06:31.835Z,99.90
2022-09-05T06:14:48.344Z,99.90
2022-09-05T06:15:04.035Z,99.90
2022-09-05T06:16:32.732Z,99.90
2022-09-05T06:19:49.768Z,99.90
2022-09-05T06:22:54.927Z,99.90
2022-09-05T06:25:57.506Z,98.00
2022-09-05T06:28:42.876Z,97.70
2022-09-05T06:31:30.550Z,97.40
2022-09-05T06:34:33.281Z,98.70
2022-09-05T06:37:09.700Z,97.70
2022-09-05T06:39:58.466Z,97.50
2022-09-05T06:42:42.592Z,97.10
2022-09-05T06:45:27.473Z,94.70
2022-09-05T06:48:06.134Z,93.30
2022-09-05T06:51:08.090Z,92.00
2022-09-05T06:53:53.240Z,93.40
2022-09-05T06:56:40.230Z,94.40
2022-09-05T06:59:41.684Z,92.20
2022-09-05T07:02:28.618Z,90.50
2022-09-05T07:05:38.829Z,85.00
2022-09-05T07:08:36.407Z,78.20
2022-09-05T07:11:17.361Z,79.20
2022-09-05T07:14:00.048Z,81.00
2022-09-05T07:16:41.756Z,78.50
2022-09-05T07:19:25.452Z,77.20
2022-09-05T07:22:06.334Z,74.90
2022-09-05T07:24:55.623Z,74.50
2022-09-05T07:27:49.825Z,72.90
2022-09-05T07:30:24.892Z,73.60
2022-09-05T07:32:54.906Z,70.10
2022-09-05T07:35:29.296Z,70.40
2022-09-05T07:38:06.736Z,69.80
2022-09-05T07:40:39.409Z,67.20
2022-09-05T07:43:10.853Z,62.40
2022-09-05T07:45:52.261Z,58.60
2022-09-05T07:48:34.314Z,61.60
2022-09-05T07:56:51.198Z,63.30
2022-09-05T07:57:09.785Z,61.10
2022-09-05T07:57:31.232Z,62.00
2022-09-05T07:59:46.977Z,59.60
2022-09-05T08:02:15.199Z,63.60
2022-09-05T08:04:43.326Z,64.30
2022-09-05T08:07:49.684Z,59.00
2022-09-05T08:10:10.694Z,57.30
2022-09-05T08:13:22.780Z,58.50
2022-09-05T08:16:02.938Z,57.00
2022-09-05T08:18:28.468Z,57.20
2022-09-05T08:21:00.445Z,52.40
2022-09-05T08:23:49.118Z,51.10
2022-09-05T08:26:26.168Z,52.50
2022-09-05T08:29:02.827Z,51.00
2022-09-05T08:31:41.789Z,47.50
2022-09-05T08:34:15.654Z,47.70
2022-09-05T08:36:47.068Z,54.00
2022-09-05T08:39:20.734Z,49.20
2022-09-05T08:42:06.267Z,48.00
2022-09-05T08:46:42.115Z,49.70
2022-09-05T08:47:43.358Z,43.80
2022-09-05T08:50:31.111Z,41.50
2022-09-05T08:53:26.878Z,37.60
2022-09-05T08:56:02.643Z,37.40
2022-09-05T08:59:27.244Z,33.10
2022-09-05T09:02:42.908Z,32.00
2022-09-05T09:05:02.117Z,32.00
2022-09-05T09:07:51.140Z,30.90
2022-09-05T09:10:44.470Z,28.90
2022-09-05T09:13:32.211Z,28.20
2022-09-05T09:16:06.505Z,21.40
2022-09-05T09:18:46.737Z,19.80
2022-09-05T09:21:26.021Z,8.80
2022-09-05T09:24:06.288Z,14.80
2022-09-05T09:26:40.384Z,8.30
2022-09-05T09:29:12.851Z,14.30
2022-09-05T09:32:00.729Z,1.00
2022-09-05T09:34:53.305Z,14.90
2022-09-05T09:38:04.776Z,1.10
2022-09-05T09:41:15.900Z,3.70
2022-09-05T09:44:07.891Z,1.00
2022-09-05T09:46:41.925Z,1.00
2022-09-05T09:49:27.622Z,1.00
2022-09-05T09:52:31.581Z,1.00
2022-09-05T09:55:39.067Z,1.00
2022-09-05T09:58:31.748Z,1.00
2022-09-05T10:01:35.866Z,1.00
2022-09-05T10:10:50.595Z,1.00
2022-09-05T10:11:09.108Z,1.00
2022-09-05T10:11:36.135Z,1.00
2022-09-05T10:14:30.717Z,1.00
2022-09-05T10:17:30.311Z,1.00
2022-09-05T10:20:29.656Z,1.00
2022-09-05T10:23:37.358Z,1.00
2022-09-05T10:26:43.205Z,1.00
2022-09-05T10:29:35.093Z,1.00
2022-09-05T10:35:09.967Z,1.00
2022-09-05T10:35:16.921Z,1.00
2022-09-05T10:37:55.318Z,1.00
2022-09-05T10:40:25.625Z,1.00
2022-09-05T10:43:00.980Z,1.00
2022-09-05T10:45:39.756Z,1.00
2022-09-05T10:48:14.040Z,1.00
2022-09-05T10:50:45.810Z,1.00
2022-09-05T10:53:39.938Z,1.00
2022-09-05T10:56:15.540Z,1.00
2022-09-05T11:00:32.601Z,1.00
2022-09-05T11:02:29.325Z,1.00
2022-09-05T11:04:52.539Z,1.00
2022-09-05T11:07:29.706Z,1.00
2022-09-05T11:10:11.594Z,1.00
2022-09-05T11:13:01.336Z,1.00
2022-09-05T11:15:44.100Z,1.00
2022-09-05T11:18:55.974Z,1.00
2022-09-05T11:21:31.099Z,1.00
2022-09-05T11:24:05.164Z,1.00
2022-09-05T11:26:42.276Z,1.00
2022-09-05T11:29:13.346Z,1.00
2022-09-05T11:33:01.774Z,1.00
2022-09-05T11:40:05.889Z,1.00
2022-09-05T11:40:07.645Z,1.00
2022-09-05T11:41:53.183Z,1.00
2022-09-05T11:44:43.963Z,1.00
2022-09-05T11:47:33.207Z,1.00
2022-09-05T11:50:46.547Z,1.00
2022-09-05T11:53:44.101Z,1.00
2022-09-05T11:56:45.620Z,1.00
2022-09-05T12:00:10.762Z,1.00
2022-09-05T12:06:22.336Z,1.00
2022-09-05T12:08:55.800Z,1.00
2022-09-05T12:11:43.354Z,1.00
2022-09-05T12:14:34.276Z,1.00
2022-09-05T12:17:10.172Z,1.00
2022-09-05T12:19:55.321Z,1.00
2022-09-05T12:22:28.291Z,1.00
2022-09-05T12:27:36.693Z,1.00
2022-09-05T12:29:27.514Z,1.00
2022-09-05T12:33:33.953Z,1.00
2022-09-05T12:36:11.387Z,1.00
2022-09-05T12:40:53.763Z,1.00
2022-09-05T12:41:35.459Z,1.00
2022-09-05T12:41:37.435Z,1.00
2022-09-05T12:44:36.830Z,1.00
2022-09-05T12:48:38.517Z,1.00
2022-09-05T12:51:11.114Z,1.00
2022-09-05T12:53:45.981Z,1.00
2022-09-05T12:57:53.017Z,1.00
2022-09-05T13:03:01.344Z,1.00
2022-09-05T13:03:13.136Z,1.00
2022-09-05T13:05:04.962Z,1.00
2022-09-05T13:07:41.066Z,1.00
2022-09-05T13:11:24.134Z,1.00
2022-09-05T13:14:49.645Z,1.00
2022-09-05T13:16:03.332Z,1.00
2022-09-05T13:18:39.203Z,1.00
2022-09-05T13:21:12.041Z,1.00
2022-09-05T13:23:48.768Z,1.00
2022-09-05T13:26:25.409Z,1.00
2022-09-05T13:29:07.045Z,1.00
2022-09-05T13:37:55.248Z,1.00
2022-09-05T13:38:14.305Z,1.00
2022-09-05T13:41:00.184Z,1.00
2022-09-05T13:43:36.425Z,1.00
2022-09-05T13:46:12.517Z,1.00
2022-09-05T13:51:43.686Z,1.00
2022-09-05T13:54:39.240Z,1.00
2022-09-05T13:57:33.275Z,1.00
2022-09-05T14:00:39.131Z,1.00
2022-09-05T14:03:40.344Z,1.00
2022-09-05T14:06:46.536Z,1.00
2022-09-05T14:09:35.771Z,1.00
2022-09-05T14:12:19.500Z,1.00
2022-09-05T14:15:11.446Z,1.00
2022-09-05T14:18:21.637Z,1.00
2022-09-05T14:21:14.741Z,1.00
2022-09-05T14:23:53.322Z,1.00
2022-09-05T14:26:28.027Z,1.00
2022-09-05T14:29:05.970Z,1.00
2022-09-05T14:37:19.197Z,1.00
2022-09-05T14:37:45.204Z,1.00
2022-09-05T14:38:11.681Z,1.00
2022-09-05T14:41:15.291Z,1.00
2022-09-05T14:44:21.208Z,1.00
2022-09-05T14:47:02.659Z,1.00
2022-09-05T14:49:49.554Z,1.00
2022-09-05T14:52:24.505Z,1.00
2022-09-05T15:02:45.054Z,1.00
2022-09-05T15:02:53.202Z,1.00
2022-09-05T15:06:37.226Z,1.00
2022-09-05T15:12:14.490Z,1.00
2022-09-05T15:12:33.113Z,1.00
2022-09-05T15:15:20.143Z,1.00
2022-09-05T15:17:52.642Z,1.00
2022-09-05T15:20:36.825Z,1.00
2022-09-05T15:23:11.150Z,1.00
2022-09-05T15:25:47.618Z,1.00
2022-09-05T15:28:22.333Z,1.00
2022-09-05T15:30:58.669Z,1.00
2022-09-05T15:33:29.317Z,1.00
2022-09-05T15:35:58.679Z,1.00
2022-09-05T15:38:30.029Z,1.00
2022-09-05T15:41:09.902Z,1.00
2022-09-05T15:43:58.244Z,1.00
2022-09-05T15:46:35.665Z,1.00
2022-09-05T15:49:05.356Z,1.00
2022-09-05T15:51:48.367Z,1.00
2022-09-05T15:54:38.680Z,1.00
2022-09-05T15:57:17.659Z,1.00
2022-09-05T15:59:52.697Z,1.00
2022-09-05T16:02:24.335Z,1.00
2022-09-05T16:10:30.983Z,1.00
2022-09-05T16:10:44.810Z,1.00
2022-09-05T16:11:06.070Z,1.00
2022-09-05T16:13:52.810Z,1.00
2022-09-05T16:23:11.856Z,1.00
2022-09-05T16:23:14.769Z,1.00
2022-09-05T16:23:26.991Z,1.00
2022-09-05T16:25:09.486Z,1.00
2022-09-05T16:27:51.561Z,1.00
2022-09-05T16:30:24.973Z,1.00
2022-09-05T16:33:00.167Z,1.00
2022-09-05T16:35:31.248Z,1.00
2022-09-05T16:38:09.812Z,1.00
2022-09-05T16:40:40.953Z,1.00
2022-09-05T16:43:13.099Z,1.00
2022-09-05T16:45:48.966Z,1.00
2022-09-05T16:48:31.331Z,1.00
2022-09-05T16:51:13.450Z,1.00
2022-09-05T16:53:57.989Z,1.00
2022-09-05T16:56:34.257Z,1.00
2022-09-05T16:59:04.437Z,1.00
2022-09-05T17:01:54.732Z,1.00
2022-09-05T17:05:03.140Z,1.00
2022-09-05T17:07:53.490Z,1.00
2022-09-05T17:10:25.625Z,1.00
2022-09-05T17:12:54.815Z,1.00
2022-09-05T17:15:27.590Z,1.00
2022-09-05T17:18:21.696Z,1.00
2022-09-05T17:20:55.465Z,1.00
2022-09-05T17:27:19.968Z,1.00
2022-09-05T17:29:48.958Z,1.00
2022-09-05T17:32:47.140Z,1.00
2022-09-05T17:35:42.196Z,1.00
2022-09-05T17:38:30.853Z,1.00
2022-09-05T17:41:22.946Z,1.00
2022-09-05T17:43:58.880Z,1.00
2022-09-05T17:46:29.055Z,1.00
2022-09-05T17:49:19.564Z,1.00
2022-09-05T17:52:27.188Z,1.00
2022-09-05T17:54:57.484Z,1.00
2022-09-05T17:57:44.232Z,1.00
2022-09-05T18:01:00.956Z,1.00
2022-09-05T18:04:16.291Z,1.00
2022-09-05T18:06:59.579Z,1.00
2022-09-05T18:10:12.972Z,1.00
2022-09-05T18:13:13.802Z,1.00
2022-09-05T18:16:03.906Z,1.00
2022-09-05T18:19:28.609Z,1.00
2022-09-05T18:21:25.661Z,1.00
2022-09-05T18:24:04.468Z,1.00
2022-09-05T18:26:41.311Z,1.00
2022-09-05T18:29:24.716Z,1.00
2022-09-05T18:32:13.060Z,1.00
2022-09-05T18:34:46.165Z,1.00
2022-09-05T18:37:47.973Z,1.00
2022-09-05T18:40:35.862Z,1.00
2022-09-05T18:43:10.439Z,1.00
2022-09-05T18:45:52.130Z,1.00
2022-09-05T18:48:28.272Z,1.00
2022-09-05T18:51:15.721Z,1.00
2022-09-05T18:53:47.975Z,1.00
2022-09-05T18:56:39.426Z,1.00
2022-09-05T18:59:24.340Z,1.00
2022-09-05T19:01:58.721Z,1.00
2022-09-05T19:04:41.464Z,1.00
2022-09-05T19:07:13.496Z,1.00
2022-09-05T19:10:03.649Z,1.00
2022-09-05T19:12:53.888Z,11.80
2022-09-05T19:15:25.010Z,7.70
2022-09-05T19:18:26.414Z,6.20
2022-09-05T19:21:12.061Z,6.40
2022-09-05T19:23:48.317Z,10.80
2022-09-05T19:26:16.506Z,12.90
2022-09-05T19:35:22.992Z,8.90
2022-09-05T19:37:12.708Z,11.50
2022-09-05T19:37:15.104Z,10.70
2022-09-05T19:37:38.294Z,17.00
2022-09-05T19:47:25.217Z,15.10
2022-09-05T19:47:41.042Z,16.20
2022-09-05T19:47:52.050Z,20.10
2022-09-05T19:48:39.349Z,21.40
2022-09-05T19:51:17.057Z,22.90
2022-09-05T19:53:56.590Z,29.00
2022-09-05T19:56:36.617Z,28.20
2022-09-05T19:59:16.749Z,27.80
2022-09-05T20:01:46.640Z,24.80
2022-09-05T20:04:18.711Z,29.40
2022-09-05T20:06:50.140Z,27.60
2022-09-05T20:09:19.717Z,21.90
2022-09-05T20:11:49.892Z,27.70
2022-09-05T20:14:20.901Z,20.40
2022-09-05T20:16:50.338Z,25.80
2022-09-05T20:19:28.304Z,25.30
2022-09-05T20:22:11.490Z,27.00
2022-09-05T20:24:49.225Z,29.00
2022-09-05T20:27:17.741Z,35.00
2022-09-05T20:29:55.572Z,31.60
2022-09-05T20:32:38.508Z,34.90
2022-09-05T20:36:32.894Z,36.70
2022-09-05T20:43:15.640Z,30.40
2022-09-05T20:43:32.822Z,39.40
2022-09-05T20:43:57.817Z,32.90
2022-09-05T20:50:44.322Z,32.30
2022-09-05T20:54:09.665Z,35.90
2022-09-05T20:54:13.199Z,37.80
2022-09-05T20:55:37.841Z,37.40
2022-09-05T20:57:51.901Z,42.70
2022-09-05T21:00:23.019Z,34.30
2022-09-05T21:02:54.631Z,40.80
2022-09-05T21:05:28.621Z,42.50
2022-09-05T21:08:16.629Z,48.70
2022-09-05T21:10:54.966Z,44.80
2022-09-05T21:13:26.208Z,40.20
2022-09-05T21:15:55.616Z,43.10
2022-09-05T21:18:32.974Z,36.10
2022-09-05T21:21:27.934Z,44.30
2022-09-05T21:24:17.587Z,35.60
2022-09-05T21:26:49.562Z,37.50
2022-09-05T21:29:27.250Z,39.90
2022-09-05T21:32:00.409Z,38.10
2022-09-05T21:34:32.519Z,36.20
2022-09-05T21:37:07.245Z,36.70
2022-09-05T21:39:40.079Z,38.00
2022-09-05T21:42:37.227Z,40.90
2022-09-05T21:47:43.657Z,40.70
2022-09-05T21:47:53.107Z,48.30
2022-09-05T21:50:30.784Z,44.50
2022-09-05T21:54:28.535Z,54.90
2022-09-05T21:59:21.157Z,72.50
2022-09-05T21:59:29.498Z,56.50
2022-09-05T22:01:52.067Z,63.40
2022-09-05T22:04:18.974Z,61.70
2022-09-05T22:06:48.152Z,67.00
2022-09-05T22:09:17.059Z,60.90
2022-09-05T22:11:50.247Z,53.70
2022-09-05T22:14:21.177Z,52.30
2022-09-05T22:16:51.453Z,62.00
2022-09-05T22:19:26.167Z,68.80
2022-09-05T22:22:15.683Z,64.20
2022-09-05T22:24:47.823Z,72.40
2022-09-05T22:27:19.918Z,68.20
2022-09-05T22:29:51.100Z,60.60
2022-09-05T22:32:34.553Z,61.20
2022-09-05T22:35:26.815Z,61.70
2022-09-05T22:37:59.225Z,60.20
2022-09-05T22:40:28.267Z,61.70
2022-09-05T22:42:57.701Z,63.80
2022-09-05T22:45:27.389Z,63.60
2022-09-05T22:47:55.609Z,63.40
2022-09-05T22:50:23.967Z,70.70
2022-09-05T22:52:52.144Z,73.50
2022-09-05T22:55:20.418Z,65.10
2022-09-05T22:57:48.561Z,65.60
2022-09-05T23:00:16.716Z,66.20
2022-09-05T23:02:52.243Z,64.90
2022-09-05T23:05:20.845Z,76.10
2022-09-05T23:07:48.949Z,73.10
2022-09-05T23:10:18.914Z,79.00
2022-09-05T23:12:47.096Z,83.80
2022-09-05T23:15:15.766Z,83.20
2022-09-05T23:17:43.865Z,85.30
2022-09-05T23:20:13.383Z,79.80
2022-09-05T23:22:42.974Z,81.70
2022-09-05T23:25:11.046Z,85.70
2022-09-05T23:27:39.593Z,90.90
2022-09-05T23:30:09.506Z,76.10
2022-09-05T23:32:37.825Z,71.80
2022-09-05T23:35:06.525Z,69.50
2022-09-05T23:37:35.968Z,79.30
2022-09-05T23:40:04.836Z,75.60
2022-09-05T23:42:32.905Z,87.20
2022-09-05T23:45:00.959Z,88.30
2022-09-05T23:47:29.848Z,90.90
2022-09-05T23:49:57.960Z,90.10
2022-09-05T23:52:26.005Z,90.90
2022-09-05T23:54:55.677Z,88.10
2022-09-05T23:57:24.640Z,84.70
2022-09-05T23:59:52.918Z,85.20
